createdAt,value
2022-08-25T00:01:41.617Z,8.40
2022-08-25T00:06:46.460Z,7.60
2022-08-25T00:11:51.699Z,8.80
2022-08-25T00:16:56.064Z,8.10
2022-08-25T00:22:01.182Z,7.60
2022-08-25T00:27:05.135Z,7.90
2022-08-25T00:32:09.875Z,8.80
2022-08-25T00:37:13.326Z,7.50
2022-08-25T00:42:16.537Z,7.50
2022-08-25T00:47:20.224Z,7.30
2022-08-25T00:52:28.343Z,7.00
2022-08-25T00:57:37.959Z,7.80
2022-08-25T01:02:41.527Z,6.90
2022-08-25T01:07:45.653Z,7.90
2022-08-25T01:12:50.573Z,7.10
2022-08-25T01:17:57.618Z,7.10
2022-08-25T01:23:03.832Z,8.10
2022-08-25T01:28:07.471Z,6.70
2022-08-25T01:33:12.495Z,6.70
2022-08-25T01:38:16.433Z,6.50
2022-08-25T01:43:37.653Z,6.60
2022-08-25T01:48:41.095Z,6.70
2022-08-25T01:53:44.483Z,6.20
2022-08-25T01:58:50.266Z,6.00
2022-08-25T02:03:56.095Z,4.70
2022-08-25T02:09:15.881Z,6.00
2022-08-25T02:14:20.274Z,5.60
2022-08-25T02:19:26.170Z,5.70
2022-08-25T02:24:29.571Z,6.10
2022-08-25T02:29:34.104Z,6.50
2022-08-25T02:34:40.123Z,6.20
2022-08-25T02:39:43.299Z,5.50
2022-08-25T02:44:46.857Z,4.60
2022-08-25T02:49:50.137Z,5.90
2022-08-25T02:54:53.418Z,6.10
2022-08-25T02:59:58.420Z,6.00
2022-08-25T03:05:01.700Z,6.60
2022-08-25T03:10:09.655Z,5.90
2022-08-25T03:15:19.375Z,6.40
2022-08-25T03:20:28.151Z,7.10
2022-08-25T03:25:49.748Z,6.00
2022-08-25T03:30:56.253Z,7.10
2022-08-25T03:36:00.036Z,6.50
2022-08-25T03:41:12.145Z,6.30
2022-08-25T03:46:20.212Z,6.50
2022-08-25T03:51:27.795Z,6.80
2022-08-25T03:56:31.731Z,7.40
2022-08-25T04:01:36.940Z,7.10
2022-08-25T04:06:41.884Z,7.90
2022-08-25T04:11:45.110Z,6.40
2022-08-25T04:16:48.547Z,6.60
2022-08-25T04:21:56.685Z,7.20
2022-08-25T04:27:00.640Z,7.00
2022-08-25T04:32:04.289Z,7.10
2022-08-25T04:37:08.164Z,6.90
2022-08-25T04:42:11.846Z,6.90
2022-08-25T04:47:15.072Z,6.80
2022-08-25T04:52:18.257Z,5.80
2022-08-25T04:57:21.776Z,5.90
2022-08-25T05:02:25.590Z,5.50
2022-08-25T05:07:28.899Z,5.70
2022-08-25T05:12:34.572Z,6.30
2022-08-25T05:17:39.103Z,6.70
2022-08-25T05:22:47.056Z,9.40
2022-08-25T05:27:50.681Z,8.50
2022-08-25T05:32:53.859Z,7.60
2022-08-25T05:37:57.686Z,8.00
2022-08-25T05:43:00.828Z,8.60
2022-08-25T05:48:04.323Z,7.70
2022-08-25T05:53:07.640Z,7.90
2022-08-25T05:58:11.347Z,13.00
2022-08-25T06:03:18.496Z,9.90
2022-08-25T06:08:21.891Z,8.40
2022-08-25T06:13:28.744Z,6.50
2022-08-25T06:18:32.442Z,8.00
2022-08-25T06:23:37.371Z,6.70
2022-08-25T06:28:41.283Z,6.50
2022-08-25T06:33:45.279Z,6.20
2022-08-25T06:38:48.933Z,6.70
2022-08-25T06:43:56.723Z,6.60
2022-08-25T06:49:09.933Z,6.50
2022-08-25T06:54:13.357Z,5.80
2022-08-25T06:59:18.064Z,6.40
2022-08-25T07:04:21.672Z,6.20
2022-08-25T07:09:24.905Z,6.10
2022-08-25T07:14:28.697Z,5.20
2022-08-25T07:19:31.977Z,6.10
2022-08-25T07:24:35.243Z,5.00
2022-08-25T07:29:42.193Z,4.90
2022-08-25T07:35:04.527Z,4.60
2022-08-25T07:40:08.825Z,5.10
2022-08-25T07:45:13.804Z,4.30
2022-08-25T07:50:19.157Z,4.40
2022-08-25T07:55:24.789Z,4.40
2022-08-25T08:00:30.779Z,5.50
2022-08-25T08:05:35.462Z,4.80
2022-08-25T08:11:03.320Z,4.90
2022-08-25T08:16:13.407Z,4.60
2022-08-25T08:21:21.083Z,4.90
2022-08-25T08:26:36.460Z,4.90
2022-08-25T08:31:49.034Z,5.00
2022-08-25T08:36:53.387Z,4.90
2022-08-25T08:42:53.460Z,5.40
2022-08-25T08:48:11.743Z,5.50
2022-08-25T08:53:27.759Z,5.70
2022-08-25T08:58:42.306Z,4.80
2022-08-25T09:04:03.568Z,4.70
2022-08-25T09:09:11.918Z,4.90
2022-08-25T09:14:36.476Z,5.00
2022-08-25T09:20:04.026Z,7.00
2022-08-25T09:25:52.509Z,7.40
2022-08-25T09:31:29.821Z,5.90
2022-08-25T09:36:37.678Z,6.00
2022-08-25T09:41:46.054Z,5.40
2022-08-25T09:47:02.472Z,5.10
2022-08-25T09:52:33.418Z,5.60
2022-08-25T09:57:44.450Z,5.70
2022-08-25T10:03:12.848Z,5.70
2022-08-25T10:08:32.561Z,5.60
2022-08-25T10:13:49.239Z,5.70
2022-08-25T10:19:02.679Z,5.50
2022-08-25T10:24:06.873Z,5.60
2022-08-25T10:29:34.853Z,5.70
2022-08-25T10:34:51.743Z,6.20
2022-08-25T10:40:07.958Z,6.60
2022-08-25T10:45:40.979Z,6.30
2022-08-25T10:51:02.292Z,6.10
2022-08-25T10:56:12.618Z,6.70
2022-08-25T11:01:41.267Z,7.00
2022-08-25T11:07:08.078Z,6.80
2022-08-25T11:12:12.104Z,6.50
2022-08-25T11:17:32.799Z,6.50
2022-08-25T11:22:43.872Z,6.90
2022-08-25T11:28:06.875Z,6.50
2022-08-25T11:33:19.733Z,5.70
2022-08-25T11:38:48.544Z,6.10
2022-08-25T11:43:52.417Z,6.40
2022-08-25T11:48:59.546Z,6.00
2022-08-25T11:54:27.659Z,5.90
2022-08-25T11:59:52.638Z,6.50
2022-08-25T12:04:56.721Z,6.70
2022-08-25T12:10:06.081Z,6.00
2022-08-25T12:15:21.485Z,6.50
2022-08-25T12:20:53.879Z,7.40
2022-08-25T12:26:01.832Z,6.70
2022-08-25T12:31:18.630Z,6.30
2022-08-25T12:36:34.553Z,6.60
2022-08-25T12:42:03.780Z,6.60
2022-08-25T12:47:32.655Z,7.30
2022-08-25T12:52:38.756Z,7.20
2022-08-25T12:57:58.954Z,6.80
2022-08-25T13:03:26.394Z,7.00
2022-08-25T13:08:51.627Z,7.10
2022-08-25T13:14:14.103Z,6.80
2022-08-25T13:19:21.159Z,7.10
2022-08-25T13:24:32.436Z,7.10
2022-08-25T13:30:03.845Z,6.70
2022-08-25T13:35:08.897Z,6.70
2022-08-25T13:40:28.117Z,7.00
2022-08-25T13:45:41.466Z,7.00
2022-08-25T13:50:50.177Z,7.30
2022-08-25T13:55:59.122Z,6.40
2022-08-25T14:01:22.721Z,6.10
2022-08-25T14:06:33.077Z,6.30
2022-08-25T14:11:45.120Z,7.00
2022-08-25T14:17:11.992Z,7.30
2022-08-25T14:22:26.774Z,7.00
2022-08-25T14:27:30.062Z,6.50
2022-08-25T14:32:33.368Z,6.50
2022-08-25T14:37:37.117Z,6.30
2022-08-25T14:42:40.686Z,6.80
2022-08-25T14:47:49.769Z,6.70
2022-08-25T14:52:53.469Z,7.40
2022-08-25T14:58:01.658Z,6.80
2022-08-25T15:03:05.929Z,6.40
2022-08-25T15:08:33.112Z,6.90
2022-08-25T15:13:37.069Z,6.70
2022-08-25T15:18:40.380Z,6.40
2022-08-25T15:23:45.552Z,6.50
2022-08-25T15:28:50.707Z,6.60
2022-08-25T15:33:53.874Z,6.50
2022-08-25T15:38:57.657Z,6.00
2022-08-25T15:44:00.918Z,6.70
2022-08-25T15:49:05.232Z,5.70
2022-08-25T15:54:14.470Z,6.30
2022-08-25T15:59:17.697Z,6.30
2022-08-25T16:04:28.155Z,6.10
2022-08-25T16:09:31.665Z,6.60
2022-08-25T16:14:35.033Z,5.80
2022-08-25T16:19:38.586Z,6.40
2022-08-25T16:24:46.856Z,5.20
2022-08-25T16:29:50.102Z,5.30
2022-08-25T16:34:53.331Z,6.10
2022-08-25T16:39:59.968Z,6.30
2022-08-25T16:45:05.301Z,6.20
2022-08-25T16:50:11.628Z,6.30
2022-08-25T16:55:16.031Z,6.30
2022-08-25T17:00:27.103Z,6.10
2022-08-25T17:05:31.587Z,6.00
2022-08-25T17:10:40.104Z,5.20
2022-08-25T17:15:52.396Z,5.90
2022-08-25T17:21:04.523Z,7.20
2022-08-25T17:26:13.015Z,5.80
2022-08-25T17:31:18.819Z,6.00
2022-08-25T17:36:27.215Z,6.40
2022-08-25T17:41:30.814Z,6.50
2022-08-25T17:46:34.119Z,5.90
2022-08-25T17:51:37.633Z,6.70
2022-08-25T17:56:41.196Z,5.70
2022-08-25T18:01:44.710Z,6.40
2022-08-25T18:06:48.742Z,6.00
2022-08-25T18:11:52.811Z,6.30
2022-08-25T18:16:56.957Z,6.50
2022-08-25T18:22:04.574Z,6.80
2022-08-25T18:27:07.939Z,5.50
2022-08-25T18:32:12.448Z,6.10
2022-08-25T18:37:34.228Z,5.70
2022-08-25T18:42:37.558Z,6.50
2022-08-25T18:47:42.037Z,6.40
2022-08-25T18:52:45.912Z,6.40
2022-08-25T18:57:49.376Z,6.90
2022-08-25T19:02:55.711Z,7.60
2022-08-25T19:08:02.932Z,6.60
2022-08-25T19:13:08.160Z,6.60
2022-08-25T19:18:13.285Z,6.40
2022-08-25T19:23:17.306Z,6.30
2022-08-25T19:28:20.683Z,6.50
2022-08-25T19:33:42.520Z,5.90
2022-08-25T19:38:47.520Z,6.80
2022-08-25T19:43:56.782Z,6.00
2022-08-25T19:49:07.623Z,7.00
2022-08-25T19:54:17.203Z,7.30
2022-08-25T19:59:20.573Z,7.70
2022-08-25T20:04:26.164Z,7.50
2022-08-25T20:09:39.478Z,7.50
2022-08-25T20:14:44.825Z,7.30
2022-08-25T20:19:48.485Z,8.10
2022-08-25T20:24:58.769Z,8.30
2022-08-25T20:30:04.586Z,7.40
2022-08-25T20:35:13.071Z,8.20
2022-08-25T20:40:25.445Z,7.80
2022-08-25T20:45:29.258Z,8.20
2022-08-25T20:50:33.968Z,8.70
2022-08-25T20:55:42.525Z,8.20
2022-08-25T21:00:47.571Z,8.70
2022-08-25T21:05:54.022Z,8.20
2022-08-25T21:10:57.677Z,8.80
2022-08-25T21:16:02.936Z,8.40
2022-08-25T21:21:12.685Z,8.70
2022-08-25T21:26:22.428Z,9.00
2022-08-25T21:31:27.000Z,9.10
2022-08-25T21:36:31.689Z,9.60
2022-08-25T21:41:37.356Z,8.60
2022-08-25T21:46:53.806Z,10.00
2022-08-25T21:52:02.260Z,9.40
2022-08-25T21:57:06.773Z,9.00
2022-08-25T22:02:11.873Z,8.70
2022-08-25T22:07:15.260Z,10.10
2022-08-25T22:12:19.074Z,9.70
2022-08-25T22:17:24.375Z,10.60
2022-08-25T22:22:28.125Z,10.20
2022-08-25T22:27:32.041Z,11.20
2022-08-25T22:32:35.155Z,10.90
2022-08-25T22:37:38.606Z,10.50
2022-08-25T22:42:47.807Z,9.60
2022-08-25T22:47:52.581Z,10.10
2022-08-25T22:52:55.879Z,10.00
2022-08-25T22:57:59.224Z,9.50
2022-08-25T23:03:04.169Z,10.00
2022-08-25T23:08:10.382Z,9.70
2022-08-25T23:13:34.149Z,10.20
2022-08-25T23:18:43.624Z,10.40
2022-08-25T23:23:48.367Z,11.50
2022-08-25T23:28:52.476Z,11.30
2022-08-25T23:33:59.100Z,11.10
2022-08-25T23:39:02.643Z,11.60
2022-08-25T23:44:11.537Z,12.00
2022-08-25T23:49:18.818Z,11.90
2022-08-25T23:54:22.516Z,11.80
2022-08-25T23:59:35.973Z,12.00
